Time;durP1;ratioP1;P1;durP2;ratioP2;P2;SDS_P1;SDS_P2;PMS_P1;PMS_P2;Temp;Humidity;BMP_temperature;BMP_pressure;BME280_temperature;BME280_humidity;BME280_pressure;Samples;Min_cycle;Max_cycle;Signal;HPM_P1;HPM_P2
2023/07/04 00:03:41;;;;;;;0.95;0.85;;;22.70;60.30;;;;;;8261228;28;20058;-50
2023/07/04 00:07:41;;;;;;;0.80;0.68;;;22.60;60.20;;;;;;8285978;28;20034;-48
2023/07/04 00:11:42;;;;;;;0.95;0.85;;;22.60;60.10;;;;;;8299757;28;20034;-48
2023/07/04 00:15:48;;;;;;;0.90;0.70;;;22.70;60.00;;;;;;8299877;28;20049;-52
2023/07/04 00:19:50;;;;;;;1.00;0.52;;;22.70;59.90;;;;;;8299270;28;20099;-54
2023/07/04 00:23:53;;;;;;;0.40;0.40;;;22.70;59.80;;;;;;8299383;28;20073;-54
2023/07/04 00:27:54;;;;;;;0.77;0.70;;;22.70;59.90;;;;;;8284600;28;20080;-48
2023/07/04 00:31:54;;;;;;;1.40;0.70;;;22.70;59.90;;;;;;8267129;28;20039;-51
2023/07/04 00:36:00;;;;;;;0.50;0.50;;;22.70;59.80;;;;;;8266954;28;20049;-49
2023/07/04 00:40:01;;;;;;;0.65;0.60;;;22.70;59.60;;;;;;8266853;28;20062;-50
2023/07/04 00:44:19;;;;;;;1.33;0.77;;;22.60;59.60;;;;;;8266597;28;20034;-48
2023/07/04 00:48:20;;;;;;;0.77;0.60;;;22.60;59.50;;;;;;8266369;28;20026;-50
2023/07/04 00:52:33;;;;;;;0.60;0.60;;;22.60;59.40;;;;;;8266310;28;20503;-49
2023/07/04 00:56:33;;;;;;;0.52;0.50;;;22.60;59.30;;;;;;8266192;28;20392;-51
2023/07/04 01:00:37;;;;;;;1.60;0.60;;;22.60;59.30;;;;;;8265904;28;20026;-49
2023/07/04 01:04:38;;;;;;;0.98;0.65;;;22.60;59.30;;;;;;8266085;28;20161;-49
2023/07/04 01:08:46;;;;;;;0.70;0.60;;;22.60;59.20;;;;;;8297595;28;20097;-51
2023/07/04 01:12:46;;;;;;;0.70;0.70;;;22.50;59.20;;;;;;8265763;28;20026;-50
2023/07/04 01:16:47;;;;;;;2.28;0.70;;;22.60;59.20;;;;;;8265454;28;20488;-49
2023/07/04 01:20:50;;;;;;;0.70;0.70;;;22.60;59.20;;;;;;8264715;28;20050;-50
2023/07/04 01:25:11;;;;;;;0.55;0.55;;;22.60;59.20;;;;;;8265344;28;20117;-48
2023/07/04 01:29:14;;;;;;;0.70;0.50;;;22.50;59.20;;;;;;8296719;28;20483;-50
2023/07/04 01:33:16;;;;;;;0.60;0.60;;;22.50;59.10;;;;;;8265571;28;20049;-49
2023/07/04 01:37:18;;;;;;;0.70;0.52;;;22.50;59.20;;;;;;8265184;28;20034;-49
2023/07/04 01:41:19;;;;;;;1.15;0.60;;;22.50;59.10;;;;;;8264634;28;20042;-50
2023/07/04 01:45:20;;;;;;;0.50;0.45;;;22.50;59.10;;;;;;8264692;28;20026;-50
2023/07/04 01:49:21;;;;;;;0.60;0.60;;;22.50;59.20;;;;;;8265539;28;20566;-50
2023/07/04 01:53:21;;;;;;;0.63;0.63;;;22.50;59.20;;;;;;8295931;28;20026;-51
2023/07/04 01:57:23;;;;;;;1.33;0.70;;;22.50;59.10;;;;;;8264299;28;20041;-50
2023/07/04 02:01:24;;;;;;;1.17;0.60;;;22.50;59.10;;;;;;8264139;28;20030;-50
2023/07/04 02:05:26;;;;;;;0.70;0.60;;;22.50;59.20;;;;;;8264194;28;20038;-50
2023/07/04 02:09:27;;;;;;;0.80;0.60;;;22.40;59.10;;;;;;8264090;28;20387;-49
2023/07/04 02:13:28;;;;;;;1.00;0.90;;;22.40;59.10;;;;;;8263894;28;20057;-50
2023/07/04 02:17:28;;;;;;;0.70;0.70;;;22.50;59.20;;;;;;8263479;28;20034;-49
2023/07/04 02:21:29;;;;;;;0.63;0.63;;;22.40;59.20;;;;;;8263607;28;20126;-50
2023/07/04 02:25:30;;;;;;;0.65;0.65;;;22.50;59.20;;;;;;8263673;28;20043;-50
2023/07/04 02:29:30;;;;;;;0.70;0.60;;;22.50;59.20;;;;;;8262311;28;20554;-51
2023/07/04 02:33:31;;;;;;;0.45;0.43;;;22.40;59.20;;;;;;8263377;28;20041;-50
2023/07/04 02:37:31;;;;;;;0.70;0.50;;;22.50;59.20;;;;;;8263210;28;20093;-48
2023/07/04 02:41:32;;;;;;;1.08;0.60;;;22.50;59.20;;;;;;8262951;28;20039;-49
2023/07/04 02:45:33;;;;;;;0.50;0.50;;;22.40;59.10;;;;;;8294645;28;20121;-49
2023/07/04 02:49:35;;;;;;;0.55;0.55;;;22.40;59.10;;;;;;8262613;28;20089;-49
2023/07/04 02:53:35;;;;;;;0.50;0.45;;;22.40;59.10;;;;;;8262536;28;20076;-50
2023/07/04 02:57:36;;;;;;;0.63;0.50;;;22.40;59.00;;;;;;8262607;28;20487;-49
2023/07/04 03:01:37;;;;;;;0.40;0.40;;;22.40;59.10;;;;;;8293863;28;20405;-50
2023/07/04 03:05:37;;;;;;;0.50;0.50;;;22.40;59.10;;;;;;8262448;28;20041;-50
2023/07/04 03:09:38;;;;;;;0.73;0.65;;;22.40;59.60;;;;;;8293930;28;20030;-49
2023/07/04 03:13:39;;;;;;;0.75;0.60;;;22.50;59.10;;;;;;8262143;28;20034;-52
2023/07/04 03:17:39;;;;;;;0.95;0.65;;;22.40;59.00;;;;;;8262034;28;20092;-48
2023/07/04 03:21:40;;;;;;;0.40;0.40;;;22.50;59.10;;;;;;8262018;28;20088;-52
2023/07/04 03:25:41;;;;;;;0.50;0.50;;;22.40;59.00;;;;;;8261619;28;20431;-48
2023/07/04 03:29:42;;;;;;;0.40;0.30;;;22.50;59.10;;;;;;8261661;28;20042;-48
2023/07/04 03:33:42;;;;;;;0.60;0.50;;;22.40;59.00;;;;;;8293621;28;20038;-49
2023/07/04 03:37:43;;;;;;;0.45;0.45;;;22.40;59.00;;;;;;8262505;28;20072;-49
2023/07/04 03:41:44;;;;;;;0.47;0.47;;;22.40;59.00;;;;;;8263145;28;20034;-49
2023/07/04 03:45:45;;;;;;;1.05;0.40;;;22.40;59.00;;;;;;8268286;28;20042;-48
2023/07/04 03:49:46;;;;;;;0.57;0.50;;;22.40;59.00;;;;;;8268085;28;20089;-50
2023/07/04 03:53:48;;;;;;;0.50;0.50;;;22.40;59.00;;;;;;8268314;28;20038;-51
2023/07/04 03:57:49;;;;;;;0.70;0.47;;;22.40;59.00;;;;;;8267818;28;20033;-51
2023/07/04 04:01:49;;;;;;;0.73;0.52;;;22.40;59.00;;;;;;8299300;28;20030;-48
2023/07/04 04:05:51;;;;;;;0.40;0.40;;;22.40;59.10;;;;;;8283372;28;20033;-48
2023/07/04 04:09:51;;;;;;;;;;;22.40;59.10;;;;;;8268239;28;20039;-48
2023/07/04 04:13:52;;;;;;;0.40;0.40;;;22.40;59.10;;;;;;8267531;28;20440;-51
2023/07/04 04:17:54;;;;;;;0.40;0.40;;;22.40;59.10;;;;;;8267918;28;20038;-48
2023/07/04 04:21:55;;;;;;;0.40;0.40;;;22.40;59.10;;;;;;8267112;28;20096;-48
2023/07/04 04:25:57;;;;;;;0.60;0.60;;;22.40;59.10;;;;;;8267285;28;20129;-50
2023/07/04 04:29:58;;;;;;;1.27;0.50;;;22.40;59.10;;;;;;8298906;28;20050;-51
2023/07/04 04:33:59;;;;;;;0.52;0.52;;;22.40;59.00;;;;;;8266766;28;20036;-50
2023/07/04 04:37:59;;;;;;;0.70;0.50;;;22.40;59.00;;;;;;8298654;28;20038;-48
2023/07/04 04:42:00;;;;;;;0.50;0.50;;;22.30;59.00;;;;;;8266531;28;20034;-50
2023/07/04 04:46:02;;;;;;;0.80;0.60;;;22.40;59.00;;;;;;8266454;28;20034;-51
2023/07/04 04:50:03;;;;;;;0.40;0.40;;;22.40;59.00;;;;;;8265491;28;20164;-49
2023/07/04 04:54:04;;;;;;;;;;;22.40;59.00;;;;;;8265803;28;20543;-50
2023/07/04 04:58:05;;;;;;;0.50;0.40;;;22.40;59.00;;;;;;8266203;28;20284;-52
2023/07/04 05:02:06;;;;;;;;;;;22.40;59.00;;;;;;8267223;28;20412;-50
2023/07/04 05:06:06;;;;;;;1.17;0.50;;;22.40;59.00;;;;;;8267056;28;19928;-49
2023/07/04 05:10:09;;;;;;;0.45;0.45;;;22.40;59.30;;;;;;8266111;28;20431;-49
2023/07/04 05:14:10;;;;;;;0.50;0.50;;;22.40;59.00;;;;;;8266328;28;20140;-52
2023/07/04 05:18:10;;;;;;;0.70;0.70;;;22.40;59.00;;;;;;8267018;28;20510;-51
2023/07/04 05:22:11;;;;;;;0.80;0.60;;;22.40;59.00;;;;;;8265922;28;20039;-49
2023/07/04 05:26:14;;;;;;;0.63;0.52;;;22.40;59.10;;;;;;8265441;28;20046;-48
2023/07/04 05:30:14;;;;;;;1.15;0.60;;;22.30;59.10;;;;;;8297136;28;20072;-51
2023/07/04 05:34:15;;;;;;;0.50;0.50;;;22.30;59.10;;;;;;8265884;28;20046;-50
2023/07/04 05:38:16;;;;;;;0.70;0.70;;;22.40;59.10;;;;;;8292351;28;20431;-51
2023/07/04 05:42:17;;;;;;;0.60;0.60;;;22.40;59.10;;;;;;8297234;28;20037;-48
2023/07/04 05:46:18;;;;;;;0.57;0.50;;;22.30;59.00;;;;;;8297485;28;20116;-49
2023/07/04 05:50:18;;;;;;;;;;;22.40;59.00;;;;;;8297722;28;20038;-48
2023/07/04 05:54:19;;;;;;;0.63;0.53;;;22.30;59.00;;;;;;8297241;28;19917;-49
2023/07/04 05:58:20;;;;;;;0.57;0.45;;;22.30;59.00;;;;;;8297168;28;20034;-51
2023/07/04 06:02:20;;;;;;;0.45;0.45;;;22.40;59.00;;;;;;8296698;28;20045;-53
2023/07/04 06:06:25;;;;;;;0.38;0.32;;;22.40;59.00;;;;;;8285502;28;20267;-50
2023/07/04 06:10:25;;;;;;;0.60;0.60;;;22.40;59.00;;;;;;8264347;28;20049;-50
2023/07/04 06:14:27;;;;;;;0.50;0.50;;;22.40;59.00;;;;;;8264554;28;20487;-51
2023/07/04 06:18:28;;;;;;;0.40;0.40;;;22.30;59.00;;;;;;8263903;28;20037;-51
2023/07/04 06:22:28;;;;;;;1.40;0.60;;;22.40;59.10;;;;;;8263833;28;20496;-50
2023/07/04 06:26:32;;;;;;;0.75;0.50;;;22.40;59.00;;;;;;8262531;28;20062;-51
2023/07/04 06:30:35;;;;;;;0.50;0.50;;;22.40;59.00;;;;;;8263849;28;20100;-51
2023/07/04 06:34:35;;;;;;;0.40;0.40;;;22.40;59.00;;;;;;8262376;28;20053;-48
2023/07/04 06:38:36;;;;;;;0.75;0.65;;;22.40;59.00;;;;;;8263347;28;20038;-49
2023/07/04 06:42:36;;;;;;;0.40;0.40;;;22.30;59.00;;;;;;8263463;28;20092;-51
2023/07/04 06:46:37;;;;;;;0.40;0.40;;;22.30;59.00;;;;;;8262909;28;20480;-48
2023/07/04 06:50:38;;;;;;;0.57;0.50;;;22.30;59.10;;;;;;8263085;28;20523;-49
2023/07/04 06:54:38;;;;;;;0.50;0.50;;;22.30;59.10;;;;;;8294475;28;20554;-50
2023/07/04 06:58:41;;;;;;;0.70;0.60;;;22.30;59.10;;;;;;8294398;28;20441;-51
2023/07/04 07:02:42;;;;;;;0.50;0.50;;;22.30;59.10;;;;;;8262555;28;20065;-49
2023/07/04 07:06:43;;;;;;;0.38;0.38;;;22.30;59.00;;;;;;8262985;28;20073;-51
2023/07/04 07:10:55;;;;;;;0.52;0.50;;;22.30;59.00;;;;;;8262512;28;20045;-51
2023/07/04 07:14:56;;;;;;;0.55;0.50;;;22.30;59.00;;;;;;8262138;28;20034;-50
2023/07/04 07:18:56;;;;;;;0.68;0.55;;;22.30;59.00;;;;;;8262398;28;20125;-51
2023/07/04 07:22:57;;;;;;;0.65;0.60;;;22.30;59.00;;;;;;8261936;28;20034;-50
2023/07/04 07:26:58;;;;;;;0.30;0.30;;;22.30;59.00;;;;;;8262333;28;20050;-50
2023/07/04 07:31:06;;;;;;;;;;;22.40;59.00;;;;;;8262295;28;20037;-51
2023/07/04 07:35:07;;;;;;;0.50;0.43;;;22.30;59.00;;;;;;8262528;28;20004;-51
2023/07/04 07:39:10;;;;;;;0.55;0.50;;;22.30;59.00;;;;;;8262086;28;20046;-49
2023/07/04 07:43:11;;;;;;;0.47;0.47;;;22.30;59.00;;;;;;8261822;28;20058;-50
2023/07/04 07:47:12;;;;;;;0.50;0.40;;;22.30;59.00;;;;;;8262150;28;20037;-50
2023/07/04 07:51:13;;;;;;;;;;;22.30;59.00;;;;;;8262356;28;20034;-51
2023/07/04 07:55:13;;;;;;;0.40;0.40;;;22.30;59.00;;;;;;8262101;28;19910;-50
2023/07/04 07:59:14;;;;;;;0.40;0.40;;;22.30;59.00;;;;;;8262009;28;20042;-50
2023/07/04 08:03:15;;;;;;;0.40;0.40;;;22.30;59.00;;;;;;8262348;28;20061;-48
2023/07/04 08:07:16;;;;;;;0.50;0.50;;;22.30;59.00;;;;;;8261602;28;20038;-52
2023/07/04 08:11:17;;;;;;;0.70;0.60;;;22.30;59.00;;;;;;8262029;28;20072;-51
2023/07/04 08:15:17;;;;;;;;;;;22.30;59.00;;;;;;8261974;28;20027;-49
2023/07/04 08:19:21;;;;;;;0.40;0.37;;;22.30;59.00;;;;;;8261697;28;19917;-51
2023/07/04 08:23:21;;;;;;;0.50;0.50;;;22.30;59.00;;;;;;8261531;28;20042;-51
2023/07/04 08:27:24;;;;;;;0.55;0.50;;;22.30;59.00;;;;;;8262937;28;20054;-50
2023/07/04 08:31:25;;;;;;;0.50;0.50;;;22.30;59.00;;;;;;8267363;28;20039;-50
2023/07/04 08:35:26;;;;;;;0.60;0.47;;;22.30;59.00;;;;;;8299061;28;20047;-50
2023/07/04 08:39:26;;;;;;;0.57;0.52;;;22.30;59.00;;;;;;8298582;28;20031;-50
2023/07/04 08:43:36;;;;;;;0.57;0.45;;;22.30;59.00;;;;;;8266910;28;20049;-51
2023/07/04 08:47:37;;;;;;;0.50;0.40;;;22.40;59.00;;;;;;8267395;28;20034;-51
2023/07/04 08:51:43;;;;;;;;;;;22.30;59.00;;;;;;8267275;28;20037;-49
2023/07/04 08:56:10;;;;;;;0.57;0.43;;;22.30;59.00;;;;;;8266495;28;20008;-50
2023/07/04 09:00:14;;;;;;;1.52;0.40;;;22.30;59.00;;;;;;8263930;28;20039;-49
2023/07/04 09:04:40;;;;;;;0.50;0.50;;;22.40;59.00;;;;;;8266356;28;20027;-49
2023/07/04 09:08:50;;;;;;;0.65;0.40;;;22.30;59.00;;;;;;8266456;28;20021;-49
2023/07/04 09:12:52;;;;;;;0.40;0.40;;;22.40;59.00;;;;;;8266399;28;20515;-49
2023/07/04 09:16:56;;;;;;;0.50;0.40;;;22.30;59.00;;;;;;8265946;28;20042;-52
2023/07/04 09:21:09;;;;;;;0.50;0.50;;;22.30;59.00;;;;;;8265949;28;20373;-49
2023/07/04 09:25:10;;;;;;;0.40;0.40;;;22.30;59.00;;;;;;8297067;28;20054;-49
2023/07/04 09:29:12;;;;;;;0.30;0.30;;;22.30;59.00;;;;;;8266409;28;20033;-50
2023/07/04 09:33:14;;;;;;;0.40;0.40;;;22.30;59.00;;;;;;8265786;28;20034;-52
2023/07/04 09:37:17;;;;;;;0.60;0.30;;;22.30;59.00;;;;;;8265892;28;20384;-48
2023/07/04 09:41:19;;;;;;;0.47;0.47;;;22.30;59.00;;;;;;8264638;28;20034;-51
2023/07/04 09:45:22;;;;;;;0.40;0.40;;;22.30;59.00;;;;;;8265136;28;20042;-51
2023/07/04 09:49:33;;;;;;;0.63;0.50;;;22.30;59.00;;;;;;8265343;28;20039;-50
2023/07/04 09:53:34;;;;;;;0.47;0.40;;;22.30;59.00;;;;;;8264786;28;20073;-49
2023/07/04 09:57:35;;;;;;;0.60;0.50;;;22.30;59.00;;;;;;8264915;28;20492;-48
2023/07/04 10:01:39;;;;;;;0.40;0.40;;;22.30;59.00;;;;;;8296154;28;20460;-48
2023/07/04 10:05:40;;;;;;;1.15;0.60;;;22.40;59.00;;;;;;8264869;28;20060;-51
2023/07/04 10:09:55;;;;;;;0.35;0.32;;;22.30;58.90;;;;;;8264695;28;20027;-48
2023/07/04 10:14:07;;;;;;;0.40;0.40;;;22.30;59.00;;;;;;8264305;28;20101;-49
2023/07/04 10:18:28;;;;;;;0.40;0.30;;;22.30;58.90;;;;;;8264334;28;20030;-49
2023/07/04 10:22:38;;;;;;;0.43;0.43;;;22.30;58.90;;;;;;8263928;28;20045;-50
2023/07/04 10:26:39;;;;;;;0.50;0.50;;;22.30;58.90;;;;;;8263636;28;20500;-49
2023/07/04 10:30:43;;;;;;;0.57;0.50;;;22.30;58.90;;;;;;8264011;28;20452;-50
2023/07/04 10:34:49;;;;;;;0.40;0.40;;;22.40;59.00;;;;;;8263360;28;20037;-50
2023/07/04 10:38:52;;;;;;;0.50;0.50;;;22.30;59.00;;;;;;8295502;28;20061;-50
2023/07/04 10:43:03;;;;;;;0.50;0.50;;;22.30;59.00;;;;;;8263371;28;20122;-50
2023/07/04 10:47:06;;;;;;;0.40;0.30;;;22.30;59.00;;;;;;8262216;28;20034;-50
2023/07/04 10:51:19;;;;;;;0.35;0.35;;;22.30;59.00;;;;;;8262245;28;20093;-50
2023/07/04 10:55:31;;;;;;;0.30;0.30;;;22.30;59.00;;;;;;8263130;28;20122;-49
2023/07/04 10:59:35;;;;;;;0.40;0.40;;;22.30;59.00;;;;;;8263118;28;20026;-51
2023/07/04 11:03:48;;;;;;;0.40;0.40;;;22.30;59.00;;;;;;8262660;28;20069;-48
2023/07/04 11:07:52;;;;;;;0.30;0.30;;;22.30;58.90;;;;;;8262964;28;20029;-49
2023/07/04 11:12:04;;;;;;;0.30;0.30;;;22.30;58.90;;;;;;8262500;28;20035;-48
2023/07/04 11:16:07;;;;;;;0.52;0.40;;;22.30;58.90;;;;;;8294037;28;20122;-49
2023/07/04 11:20:14;;;;;;;0.40;0.40;;;22.30;58.90;;;;;;8262351;28;20066;-52
2023/07/04 11:24:19;;;;;;;0.43;0.40;;;22.30;58.90;;;;;;8262152;28;20674;-51
2023/07/04 11:28:43;;;;;;;0.40;0.35;;;22.30;58.90;;;;;;8262212;28;20072;-49
2023/07/04 11:32:55;;;;;;;0.50;0.47;;;22.30;58.90;;;;;;8293615;28;20034;-49
2023/07/04 11:36:58;;;;;;;0.40;0.40;;;22.40;58.90;;;;;;8262696;28;20051;-49
2023/07/04 11:41:00;;;;;;;0.63;0.40;;;22.30;58.90;;;;;;8262108;28;20102;-50
2023/07/04 11:45:05;;;;;;;0.50;0.40;;;22.30;58.90;;;;;;8261814;28;20042;-50
2023/07/04 11:49:19;;;;;;;0.28;0.28;;;22.30;58.90;;;;;;8262155;28;20030;-51
2023/07/04 11:53:36;;;;;;;0.50;0.40;;;22.30;58.90;;;;;;8262193;28;20058;-48
2023/07/04 11:58:08;;;;;;;0.40;0.40;;;22.30;58.90;;;;;;8261822;28;20046;-51
2023/07/04 12:02:29;;;;;;;0.60;0.50;;;22.30;58.90;;;;;;8263448;28;20026;-51
2023/07/04 12:06:52;;;;;;;0.60;0.60;;;22.30;58.90;;;;;;8268617;28;20026;-49
2023/07/04 12:10:57;;;;;;;0.65;0.40;;;22.30;58.90;;;;;;8267987;28;20523;-51
2023/07/04 12:15:07;;;;;;;0.30;0.30;;;22.40;58.80;;;;;;8267883;28;20030;-49
2023/07/04 12:19:17;;;;;;;0.47;0.47;;;22.40;58.80;;;;;;8267653;28;20032;-50
2023/07/04 12:23:18;;;;;;;0.40;0.40;;;22.40;58.80;;;;;;8267755;28;20030;-49
2023/07/04 12:27:19;;;;;;;;;;;22.40;59.30;;;;;;8268545;28;20460;-52
2023/07/04 12:31:19;;;;;;;0.30;0.27;;;22.40;58.80;;;;;;8267589;28;19910;-48
2023/07/04 12:35:26;;;;;;;0.50;0.40;;;22.40;58.80;;;;;;8267620;28;20407;-51
2023/07/04 12:39:28;;;;;;;0.40;0.40;;;22.40;58.80;;;;;;8267253;28;20415;-51
2023/07/04 12:43:31;;;;;;;0.50;0.50;;;22.40;58.70;;;;;;8267293;28;20490;-49
2023/07/04 12:47:35;;;;;;;0.70;0.40;;;22.40;58.70;;;;;;8266948;28;20042;-48
2023/07/04 12:51:38;;;;;;;0.40;0.40;;;22.40;58.80;;;;;;8266989;28;20451;-50
2023/07/04 12:55:39;;;;;;;0.40;0.40;;;22.40;58.80;;;;;;8266728;28;20030;-49
2023/07/04 12:59:40;;;;;;;0.40;0.40;;;22.40;58.70;;;;;;8267124;28;20034;-51
2023/07/04 13:03:43;;;;;;;;;;;22.40;58.70;;;;;;8267003;28;20036;-49
2023/07/04 13:07:47;;;;;;;0.30;0.30;;;22.40;58.70;;;;;;8266626;28;19917;-49
2023/07/04 13:11:48;;;;;;;0.30;0.30;;;22.40;58.70;;;;;;8266551;28;20026;-49
2023/07/04 13:16:10;;;;;;;0.50;0.35;;;22.40;58.80;;;;;;8266002;28;20030;-49
2023/07/04 13:20:15;;;;;;;1.00;0.47;;;22.30;58.80;;;;;;8266110;28;20085;-49
2023/07/04 13:24:36;;;;;;;0.50;0.30;;;22.40;58.80;;;;;;8266015;28;20094;-50
2023/07/04 13:28:37;;;;;;;0.90;0.43;;;22.40;58.80;;;;;;8265538;28;20060;-49
2023/07/04 13:32:40;;;;;;;;;;;22.40;58.80;;;;;;8266154;28;20121;-50
2023/07/04 13:36:48;;;;;;;0.50;0.50;;;22.40;58.80;;;;;;8265849;28;19906;-49
2023/07/04 13:40:49;;;;;;;0.30;0.30;;;22.40;58.80;;;;;;8265131;28;20038;-51
2023/07/04 13:44:49;;;;;;;0.75;0.40;;;22.40;58.80;;;;;;8265047;28;20037;-50
2023/07/04 13:48:51;;;;;;;0.47;0.47;;;22.40;58.80;;;;;;8265177;28;20499;-51
2023/07/04 13:52:52;;;;;;;0.40;0.40;;;22.40;58.80;;;;;;8265021;28;20034;-48
2023/07/04 13:56:52;;;;;;;0.57;0.40;;;22.40;58.70;;;;;;8264889;28;20034;-49
2023/07/04 14:00:54;;;;;;;0.40;0.40;;;22.40;58.80;;;;;;8264913;28;20045;-47
2023/07/04 14:04:55;;;;;;;0.68;0.55;;;22.40;58.70;;;;;;8296075;28;20041;-51
2023/07/04 14:08:57;;;;;;;0.40;0.40;;;22.40;58.80;;;;;;8265035;28;20105;-51
2023/07/04 14:12:57;;;;;;;1.48;0.40;;;22.40;58.70;;;;;;8264228;28;20030;-50
2023/07/04 14:16:58;;;;;;;0.28;0.28;;;22.40;58.80;;;;;;8264259;28;20038;-51
2023/07/04 14:21:07;;;;;;;0.50;0.50;;;22.40;58.70;;;;;;8263836;28;20042;-49
2023/07/04 14:25:08;;;;;;;0.22;0.20;;;22.40;58.70;;;;;;8263828;28;20042;-49
2023/07/04 14:29:09;;;;;;;0.50;0.47;;;22.40;58.70;;;;;;8263960;28;20030;-51
2023/07/04 14:33:10;;;;;;;0.47;0.40;;;22.40;58.70;;;;;;8263598;28;20042;-51
2023/07/04 14:37:10;;;;;;;0.50;0.40;;;22.40;58.70;;;;;;8264366;28;20097;-49
2023/07/04 14:41:11;;;;;;;0.55;0.50;;;22.40;58.70;;;;;;8263416;28;20038;-50
2023/07/04 14:45:13;;;;;;;0.30;0.30;;;22.40;58.80;;;;;;8263481;28;20073;-50
2023/07/04 14:49:14;;;;;;;0.73;0.60;;;22.40;58.70;;;;;;8263027;28;20031;-50
2023/07/04 14:53:15;;;;;;;0.40;0.40;;;22.40;58.70;;;;;;8263246;28;20034;-51
2023/07/04 14:57:15;;;;;;;0.35;0.35;;;22.40;58.70;;;;;;8263463;28;20030;-51
2023/07/04 15:01:19;;;;;;;0.43;0.40;;;22.50;58.70;;;;;;8262997;28;20041;-50
2023/07/04 15:05:20;;;;;;;0.80;0.43;;;22.50;58.70;;;;;;8262944;28;20117;-48
2023/07/04 15:09:21;;;;;;;1.10;0.45;;;22.40;58.60;;;;;;8263332;28;20083;-50
2023/07/04 15:13:22;;;;;;;;;;;22.40;58.70;;;;;;8263030;28;20495;-49
2023/07/04 15:17:22;;;;;;;0.32;0.32;;;22.40;58.60;;;;;;8262634;28;20410;-51
2023/07/04 15:21:23;;;;;;;0.50;0.47;;;22.40;58.70;;;;;;8294103;28;20038;-49
2023/07/04 15:25:24;;;;;;;0.60;0.40;;;22.50;58.70;;;;;;8262116;28;20546;-50
2023/07/04 15:29:24;;;;;;;0.30;0.30;;;22.50;58.70;;;;;;8262533;28;20038;-51
2023/07/04 15:33:25;;;;;;;0.30;0.30;;;22.50;58.70;;;;;;8262052;28;20117;-50
2023/07/04 15:37:26;;;;;;;0.22;0.22;;;22.40;58.70;;;;;;8262264;28;20070;-51
2023/07/04 15:41:27;;;;;;;0.70;0.40;;;22.50;58.70;;;;;;8261929;28;20093;-50
2023/07/04 15:45:30;;;;;;;0.82;0.40;;;22.40;58.70;;;;;;8262070;28;20113;-49
2023/07/04 15:49:31;;;;;;;0.40;0.40;;;22.40;58.70;;;;;;8261916;28;20033;-50
2023/07/04 15:53:32;;;;;;;0.30;0.30;;;22.40;58.70;;;;;;8293665;28;20476;-51
2023/07/04 15:57:32;;;;;;;0.20;0.20;;;22.40;58.80;;;;;;8261825;28;20058;-49
2023/07/04 16:01:33;;;;;;;0.45;0.40;;;22.40;58.80;;;;;;8261973;28;20037;-52
2023/07/04 16:05:33;;;;;;;0.50;0.50;;;22.40;58.80;;;;;;8261989;28;20034;-50
2023/07/04 16:09:34;;;;;;;0.32;0.32;;;22.40;58.70;;;;;;8261598;28;20100;-48
2023/07/04 16:13:35;;;;;;;0.30;0.30;;;22.40;58.70;;;;;;8261567;28;20093;-51
2023/07/04 16:17:35;;;;;;;0.30;0.30;;;22.40;58.70;;;;;;8293213;28;20038;-52
2023/07/04 16:21:36;;;;;;;0.30;0.30;;;22.40;58.70;;;;;;8261657;28;20049;-50
2023/07/04 16:25:41;;;;;;;1.00;0.30;;;22.40;58.70;;;;;;8261859;28;20061;-49
2023/07/04 16:29:41;;;;;;;0.30;0.30;;;22.40;58.70;;;;;;8261487;28;20034;-52
2023/07/04 16:33:42;;;;;;;0.30;0.30;;;22.40;58.70;;;;;;8261538;28;20048;-50
2023/07/04 16:37:45;;;;;;;0.30;0.30;;;22.40;58.70;;;;;;8261578;28;20120;-50
2023/07/04 16:41:45;;;;;;;0.32;0.30;;;22.40;58.70;;;;;;8292719;28;20381;-52
2023/07/04 16:45:46;;;;;;;0.70;0.50;;;22.40;58.70;;;;;;8260952;28;20038;-52
2023/07/04 16:49:47;;;;;;;0.40;0.40;;;22.50;58.70;;;;;;8297673;28;20120;-48
2023/07/04 16:53:47;;;;;;;3.17;0.40;;;22.40;58.60;;;;;;8281524;28;20124;-50
2023/07/04 16:57:48;;;;;;;3.53;0.50;;;22.50;59.20;;;;;;8276353;28;20048;-48
2023/07/04 17:01:49;;;;;;;1.42;0.50;;;22.50;58.50;;;;;;8250936;28;20031;-48
2023/07/04 17:05:50;;;;;;;0.93;0.50;;;22.60;58.60;;;;;;8259077;28;20026;-49
2023/07/04 17:09:50;;;;;;;0.68;0.40;;;22.60;58.50;;;;;;8266263;28;20038;-50
2023/07/04 17:13:51;;;;;;;0.80;0.50;;;22.60;58.50;;;;;;8266525;28;20169;-51
2023/07/04 17:17:51;;;;;;;0.32;0.32;;;22.60;58.40;;;;;;8266170;28;20038;-51
2023/07/04 17:21:52;;;;;;;2.63;0.63;;;22.60;58.30;;;;;;8265817;28;20034;-49
2023/07/04 17:25:55;;;;;;;1.20;0.30;;;22.60;58.40;;;;;;8236097;28;20130;-48
2023/07/04 17:29:56;;;;;;;2.85;0.52;;;22.60;59.00;;;;;;8248441;28;20034;-50
2023/07/04 17:34:02;;;;;;;5.03;0.70;;;22.70;59.30;;;;;;8253262;28;20113;-51
2023/07/04 17:38:03;;;;;;;5.60;1.08;;;22.70;59.20;;;;;;8264691;28;20041;-46
2023/07/04 17:42:04;;;;;;;2.65;1.00;;;22.80;59.40;;;;;;8265159;28;20046;-48
2023/07/04 17:46:08;;;;;;;5.00;1.30;;;22.80;59.40;;;;;;8244544;28;20031;-48
2023/07/04 17:50:09;;;;;;;3.50;1.30;;;22.80;59.00;;;;;;8261388;28;20041;-47
2023/07/04 17:54:09;;;;;;;7.78;2.30;;;22.80;59.40;;;;;;8264847;28;20033;-44
2023/07/04 17:58:10;;;;;;;7.03;2.10;;;22.80;58.80;;;;;;8263410;28;20046;-47
2023/07/04 18:02:10;;;;;;;;;;;22.90;58.60;;;;;;8263947;28;20499;-48
2023/07/04 18:06:13;;;;;;;9.17;2.33;;;22.90;59.00;;;;;;8277551;28;20470;-50
2023/07/04 18:10:14;;;;;;;8.48;2.58;;;22.90;59.00;;;;;;8263320;28;20110;-46
2023/07/04 18:14:14;;;;;;;4.78;2.15;;;22.80;59.20;;;;;;8267931;28;20041;-48
2023/07/04 18:18:15;;;;;;;;;;;22.80;59.20;;;;;;8280804;28;20041;-54
2023/07/04 18:22:15;;;;;;;4.27;1.67;;;22.90;59.00;;;;;;8263864;28;20017;-47
2023/07/04 18:26:17;;;;;;;5.97;1.90;;;22.90;59.60;;;;;;8260910;28;20039;-46
2023/07/04 18:30:18;;;;;;;8.48;2.50;;;23.00;59.70;;;;;;8259057;28;20030;-52
2023/07/04 18:34:19;;;;;;;10.40;2.10;;;23.00;59.20;;;;;;8257525;28;20041;-47
2023/07/04 18:38:19;;;;;;;4.90;2.08;;;23.00;59.60;;;;;;8263538;28;20033;-46
2023/07/04 18:42:20;;;;;;;6.88;2.40;;;23.10;59.60;;;;;;8258662;28;20786;-47
2023/07/04 18:46:22;;;;;;;;;;;23.10;59.20;;;;;;8262910;28;20343;-46
2023/07/04 18:50:24;;;;;;;9.82;2.45;;;23.10;59.90;;;;;;8261979;28;19960;-46
2023/07/04 18:54:26;;;;;;;8.55;2.35;;;23.10;59.60;;;;;;8263146;28;20487;-46
2023/07/04 18:58:27;;;;;;;9.60;2.15;;;23.10;59.90;;;;;;8261354;28;20035;-47
2023/07/04 19:02:27;;;;;;;5.28;1.92;;;23.20;59.90;;;;;;8261951;28;20049;-45
2023/07/04 19:06:30;;;;;;;3.60;1.60;;;23.20;59.80;;;;;;8256889;28;20088;-48
2023/07/04 19:10:30;;;;;;;5.50;1.63;;;23.10;59.60;;;;;;8260820;28;20388;-46
2023/07/04 19:14:33;;;;;;;9.50;2.10;;;23.10;59.60;;;;;;8259445;28;20117;-49
2023/07/04 19:18:35;;;;;;;4.72;1.80;;;23.10;59.80;;;;;;8261110;28;20107;-46
2023/07/04 19:22:35;;;;;;;5.00;1.80;;;23.20;60.20;;;;;;8260994;28;20214;-47
2023/07/04 19:26:36;;;;;;;6.63;1.70;;;23.20;60.10;;;;;;8259934;28;20205;-50
2023/07/04 19:30:37;;;;;;;;;;;23.20;59.90;;;;;;8262001;28;20186;-50
2023/07/04 19:34:38;;;;;;;5.50;1.90;;;23.20;59.70;;;;;;8260993;28;20359;-49
2023/07/04 19:38:39;;;;;;;4.30;1.80;;;23.10;59.40;;;;;;8261650;28;20077;-50
2023/07/04 19:42:40;;;;;;;5.53;1.90;;;23.10;59.40;;;;;;8261378;28;20065;-49
2023/07/04 19:46:40;;;;;;;;;;;23.10;59.30;;;;;;8260517;28;20030;-46
2023/07/04 19:50:41;;;;;;;4.83;1.63;;;23.10;59.20;;;;;;8274896;28;20418;-47
2023/07/04 19:54:42;;;;;;;4.20;1.50;;;23.00;59.10;;;;;;8291784;28;20038;-49
2023/07/04 19:58:43;;;;;;;;;;;23.00;59.20;;;;;;8284473;28;20464;-48
2023/07/04 20:02:44;;;;;;;3.97;1.70;;;23.00;59.20;;;;;;8260702;28;19909;-47
2023/07/04 20:06:45;;;;;;;5.07;1.67;;;23.00;59.30;;;;;;8261288;28;20044;-50
2023/07/04 20:10:46;;;;;;;8.77;1.70;;;23.00;59.40;;;;;;8261078;28;20089;-49
2023/07/04 20:14:47;;;;;;;3.10;1.77;;;23.00;59.70;;;;;;8260143;28;20112;-48
2023/07/04 20:18:48;;;;;;;4.03;1.70;;;23.00;59.70;;;;;;8276932;28;20046;-48
2023/07/04 20:22:49;;;;;;;3.92;1.55;;;23.00;59.80;;;;;;8292999;28;20483;-48
2023/07/04 20:26:49;;;;;;;2.30;1.52;;;23.00;59.80;;;;;;8266424;28;20042;-50
2023/07/04 20:30:56;;;;;;;3.88;1.40;;;23.00;59.80;;;;;;8287067;28;20084;-48
2023/07/04 20:34:57;;;;;;;3.67;1.42;;;23.00;59.70;;;;;;8268752;28;20029;-49
2023/07/04 20:38:58;;;;;;;4.18;1.55;;;22.90;59.60;;;;;;8314901;28;20042;-48
2023/07/04 20:42:58;;;;;;;;;;;22.90;59.60;;;;;;8300069;28;20042;-50
2023/07/04 20:46:59;;;;;;;4.60;1.50;;;22.90;59.70;;;;;;8298871;28;19917;-51
2023/07/04 20:51:04;;;;;;;;;;;22.90;59.50;;;;;;8287848;28;20507;-48
2023/07/04 20:55:06;;;;;;;5.05;1.90;;;22.90;60.00;;;;;;8264950;28;19972;-50
2023/07/04 20:59:07;;;;;;;4.03;1.33;;;22.90;59.60;;;;;;8265466;28;20046;-49
2023/07/04 21:03:08;;;;;;;3.10;1.45;;;22.90;59.90;;;;;;8266110;28;20054;-47
2023/07/04 21:07:09;;;;;;;2.97;1.40;;;22.90;59.90;;;;;;8281253;28;20093;-49
2023/07/04 21:11:10;;;;;;;4.78;1.60;;;22.90;59.90;;;;;;8289372;28;20033;-48
2023/07/04 21:15:12;;;;;;;3.67;1.67;;;22.90;59.90;;;;;;8289062;28;20476;-48